Time;durP1;ratioP1;P1;durP2;ratioP2;P2;SDS_P1;SDS_P2;PMS_P1;PMS_P2;Temp;Humidity;BMP_temperature;BMP_pressure;BME280_temperature;BME280_humidity;BME280_pressure;Samples;Min_cycle;Max_cycle;Signal;HPM_P1;HPM_P2
2022/08/24 00:01:15;;;;;;;30.02;26.92;;;20.00;99.90;;;;;;4931922;28;269290;-67
2022/08/24 00:03:43;;;;;;;31.33;27.65;;;20.00;99.90;;;;;;4940481;28;192375;-66
2022/08/24 00:06:15;;;;;;;32.50;29.05;;;19.90;99.90;;;;;;4957540;28;262253;-67
2022/08/24 00:08:42;;;;;;;35.53;31.30;;;19.90;99.90;;;;;;4935557;28;206186;-65
2022/08/24 00:11:08;;;;;;;30.83;27.57;;;19.90;99.90;;;;;;4953213;28;274794;-66
2022/08/24 00:13:34;;;;;;;31.30;27.73;;;19.90;99.90;;;;;;4941519;28;180644;-66
2022/08/24 00:16:01;;;;;;;31.55;26.63;;;19.90;99.90;;;;;;4955357;28;266427;-67
2022/08/24 00:18:27;;;;;;;35.05;28.40;;;19.90;99.90;;;;;;4939656;28;207821;-67
2022/08/24 00:20:54;;;;;;;34.35;27.67;;;19.90;99.90;;;;;;4972905;28;20050;-67
2022/08/24 00:23:20;;;;;;;29.40;26.23;;;19.80;99.90;;;;;;4915436;28;242676;-67
2022/08/24 00:25:46;;;;;;;29.52;24.15;;;19.80;99.90;;;;;;4972681;28;20061;-67
2022/08/24 00:28:12;;;;;;;29.42;24.70;;;19.80;99.90;;;;;;4925145;28;253673;-67
2022/08/24 00:30:38;;;;;;;27.10;24.20;;;19.70;99.90;;;;;;4978446;28;20050;-66
2022/08/24 00:33:05;;;;;;;28.03;25.03;;;19.70;99.90;;;;;;4912657;28;257436;-66
2022/08/24 00:35:31;;;;;;;31.23;27.67;;;19.70;99.90;;;;;;4960712;28;20492;-66
2022/08/24 00:37:57;;;;;;;30.05;26.77;;;19.60;99.90;;;;;;4920267;28;268191;-66
2022/08/24 00:40:35;;;;;;;32.78;29.27;;;19.60;99.90;;;;;;4974250;28;20062;-65
2022/08/24 00:43:05;;;;;;;30.80;27.27;;;19.60;99.90;;;;;;4924077;28;268914;-66
2022/08/24 00:45:36;;;;;;;30.38;26.83;;;19.50;99.90;;;;;;4973438;28;20051;-66
2022/08/24 00:48:10;;;;;;;30.58;27.33;;;19.50;99.90;;;;;;4922926;28;255114;-67
2022/08/24 00:50:58;;;;;;;29.33;25.67;;;19.50;99.90;;;;;;4967425;28;20420;-66
2022/08/24 00:53:52;;;;;;;33.15;28.35;;;19.50;99.90;;;;;;4919593;28;206776;-66
2022/08/24 00:56:26;;;;;;;30.08;26.85;;;19.40;99.90;;;;;;4949621;28;270521;-67
2022/08/24 00:59:04;;;;;;;28.98;25.88;;;19.40;99.90;;;;;;4933594;28;206816;-66
2022/08/24 01:01:34;;;;;;;33.03;28.73;;;19.30;99.90;;;;;;4943688;28;253494;-67
2022/08/24 01:04:01;;;;;;;29.17;26.00;;;19.30;99.90;;;;;;4936071;28;210121;-67
2022/08/24 01:06:27;;;;;;;30.55;26.63;;;19.30;99.90;;;;;;4959121;28;267018;-67
2022/08/24 01:08:54;;;;;;;32.17;28.52;;;19.30;99.90;;;;;;4945737;28;204462;-67
2022/08/24 01:11:23;;;;;;;32.70;29.10;;;19.20;99.90;;;;;;4955470;28;264133;-67
2022/08/24 01:13:52;;;;;;;34.22;29.90;;;19.20;99.90;;;;;;4936865;28;217561;-66
2022/08/24 01:18:48;;;;;;;37.42;31.08;;;19.20;99.90;;;;;;4963940;28;270730;-67
2022/08/24 01:19:33;;;;;;;31.73;28.38;;;19.20;99.90;;;;;;4942655;28;206453;-66
2022/08/24 01:22:37;;;;;;;32.55;28.98;;;19.10;99.90;;;;;;4958300;28;266361;-65
2022/08/24 01:25:04;;;;;;;33.35;29.88;;;19.10;99.90;;;;;;4934255;28;205738;-66
2022/08/24 01:27:31;;;;;;;36.92;32.83;;;19.10;99.90;;;;;;4959860;28;264764;-66
2022/08/24 01:30:00;;;;;;;38.78;33.42;;;19.00;99.90;;;;;;4936069;28;150013;-67
2022/08/24 01:32:26;;;;;;;35.67;32.00;;;19.00;99.90;;;;;;4960645;28;261924;-66
2022/08/24 01:34:54;;;;;;;41.42;34.05;;;18.90;99.90;;;;;;4926347;28;211703;-68
2022/08/24 01:37:21;;;;;;;36.67;32.42;;;18.90;99.90;;;;;;4959507;28;257963;-67
2022/08/24 01:39:49;;;;;;;36.45;32.47;;;18.90;99.90;;;;;;4932309;28;206017;-67
2022/08/24 01:42:15;;;;;;;38.42;34.33;;;18.90;99.90;;;;;;4956788;28;277818;-67
2022/08/24 01:44:43;;;;;;;40.45;36.03;;;18.90;99.90;;;;;;4920741;28;207952;-67
2022/08/24 01:47:11;;;;;;;38.22;34.38;;;18.90;99.90;;;;;;4956899;28;268459;-67
2022/08/24 01:49:41;;;;;;;41.97;36.80;;;18.80;99.90;;;;;;4940294;28;207077;-67
2022/08/24 01:52:10;;;;;;;39.28;35.10;;;18.90;99.90;;;;;;4959060;28;259328;-67
2022/08/24 01:54:36;;;;;;;37.45;31.80;;;18.80;99.90;;;;;;4924185;28;182378;-67
2022/08/24 01:57:03;;;;;;;38.22;34.20;;;18.80;99.90;;;;;;4958334;28;253092;-67
2022/08/24 01:59:29;;;;;;;36.70;32.83;;;18.80;99.90;;;;;;4950840;28;31460;-67
2022/08/24 02:02:03;;;;;;;36.90;33.00;;;18.70;99.90;;;;;;4921656;28;187026;-66
2022/08/24 02:04:31;;;;;;;36.55;32.50;;;18.80;99.90;;;;;;4926319;28;206312;-66
2022/08/24 02:06:58;;;;;;;36.08;30.92;;;18.70;99.90;;;;;;4954433;28;261521;-66
2022/08/24 02:09:24;;;;;;;36.55;32.53;;;18.80;99.90;;;;;;4938203;28;206054;-66
2022/08/24 02:11:50;;;;;;;35.40;31.42;;;18.70;99.90;;;;;;4957450;28;253636;-67
2022/08/24 02:14:18;;;;;;;39.13;34.55;;;18.70;99.90;;;;;;4927012;28;210756;-66
2022/08/24 02:16:44;;;;;;;35.20;30.70;;;18.70;99.90;;;;;;4955767;28;271337;-66
2022/08/24 02:19:10;;;;;;;33.65;30.13;;;18.70;99.90;;;;;;4942368;28;178784;-66
2022/08/24 02:21:36;;;;;;;32.15;28.73;;;18.70;99.90;;;;;;4956739;28;259924;-65
2022/08/24 02:24:04;;;;;;;33.20;29.08;;;18.70;99.90;;;;;;4940626;28;205942;-65
2022/08/24 02:26:30;;;;;;;30.67;27.42;;;18.60;99.90;;;;;;4956101;28;262868;-68
2022/08/24 02:28:56;;;;;;;32.67;29.02;;;18.60;99.90;;;;;;4943418;28;209691;-66
2022/08/24 02:31:22;;;;;;;38.22;33.47;;;18.60;99.90;;;;;;4956610;28;256764;-66
2022/08/24 02:33:48;;;;;;;35.03;31.15;;;18.60;99.90;;;;;;4931472;28;209825;-67
2022/08/24 02:36:15;;;;;;;35.67;31.50;;;18.60;99.90;;;;;;4953995;28;272366;-66
2022/08/24 02:38:41;;;;;;;34.42;30.40;;;18.60;99.90;;;;;;4932561;28;206572;-66
2022/08/24 02:41:10;;;;;;;32.90;29.30;;;18.60;99.90;;;;;;4942246;28;257768;-65
2022/08/24 02:43:36;;;;;;;29.80;26.65;;;18.60;99.90;;;;;;4937838;28;167748;-67
2022/08/24 02:46:02;;;;;;;36.03;30.37;;;18.50;99.90;;;;;;4943056;28;274081;-66
2022/08/24 02:48:29;;;;;;;34.47;30.75;;;18.50;99.90;;;;;;4946172;28;206619;-67
2022/08/24 02:50:55;;;;;;;33.10;28.25;;;18.50;99.90;;;;;;4971752;28;20050;-66
2022/08/24 02:53:21;;;;;;;33.63;29.98;;;18.50;99.90;;;;;;4927462;28;209357;-66
2022/08/24 02:55:47;;;;;;;31.77;28.48;;;18.40;99.90;;;;;;4961141;28;21286;-66
2022/08/24 02:58:15;;;;;;;31.60;28.25;;;18.40;99.90;;;;;;4920733;28;256900;-66
2022/08/24 03:00:43;;;;;;;32.45;29.15;;;18.40;99.90;;;;;;4973199;28;20416;-66
2022/08/24 03:03:10;;;;;;;28.20;25.17;;;18.40;99.90;;;;;;4883088;28;265082;-66
2022/08/24 03:05:36;;;;;;;28.95;25.85;;;18.40;99.90;;;;;;4975977;28;20059;-66
2022/08/24 03:08:03;;;;;;;31.52;28.13;;;18.40;99.90;;;;;;4924012;28;257206;-65
2022/08/24 03:10:30;;;;;;;28.05;25.08;;;18.40;99.90;;;;;;4980505;28;20043;-64
2022/08/24 03:12:57;;;;;;;34.95;30.15;;;18.30;99.90;;;;;;4918643;28;274992;-66
2022/08/24 03:15:23;;;;;;;32.92;29.33;;;18.30;99.90;;;;;;4960461;28;20528;-65
2022/08/24 03:17:50;;;;;;;30.05;26.85;;;18.30;99.90;;;;;;4942722;28;264933;-64
2022/08/24 03:20:20;;;;;;;28.27;25.25;;;18.20;99.90;;;;;;4957818;28;123695;-65
2022/08/24 03:22:46;;;;;;;26.77;23.93;;;18.20;99.90;;;;;;4959402;28;261383;-65
2022/08/24 03:25:15;;;;;;;27.73;24.77;;;18.20;99.90;;;;;;4921825;28;206127;-65
2022/08/24 03:27:42;;;;;;;27.50;23.73;;;18.20;99.90;;;;;;4960366;28;266503;-66
2022/08/24 03:30:11;;;;;;;29.73;26.20;;;18.10;99.90;;;;;;4932785;28;207427;-66
2022/08/24 03:32:38;;;;;;;30.30;26.77;;;18.10;99.90;;;;;;4951840;28;159985;-65
2022/08/24 03:35:05;;;;;;;31.50;28.10;;;18.10;99.90;;;;;;4932871;28;162940;-65
2022/08/24 03:37:31;;;;;;;29.55;26.35;;;18.10;99.90;;;;;;4953166;28;117357;-67
2022/08/24 03:39:58;;;;;;;27.90;24.98;;;18.10;99.90;;;;;;4931938;28;207700;-67
2022/08/24 03:42:24;;;;;;;29.08;25.98;;;18.10;99.90;;;;;;4955734;28;277413;-66
2022/08/24 03:44:50;;;;;;;29.25;25.95;;;18.00;99.90;;;;;;4927496;28;207949;-65
2022/08/24 03:47:18;;;;;;;26.58;23.52;;;18.00;99.90;;;;;;4952650;28;163645;-64
2022/08/24 03:49:45;;;;;;;30.02;26.42;;;18.00;99.90;;;;;;4917599;28;207066;-64
2022/08/24 03:52:11;;;;;;;28.40;25.05;;;18.00;99.90;;;;;;4947140;28;253289;-67
2022/08/24 03:54:37;;;;;;;25.00;22.30;;;18.00;99.90;;;;;;4931066;28;206405;-66
2022/08/24 03:57:03;;;;;;;27.75;24.85;;;18.00;99.90;;;;;;4956188;28;268145;-65
2022/08/24 03:59:30;;;;;;;30.58;27.08;;;18.00;99.90;;;;;;4931722;28;207863;-66
2022/08/24 04:01:56;;;;;;;27.40;24.00;;;17.90;99.90;;;;;;4939711;28;274348;-66
2022/08/24 04:04:24;;;;;;;26.38;23.50;;;17.90;99.90;;;;;;4920571;28;209680;-66
2022/08/24 04:06:50;;;;;;;26.02;23.20;;;17.90;99.90;;;;;;4952768;28;262359;-66
2022/08/24 04:09:17;;;;;;;26.95;23.52;;;17.90;99.90;;;;;;4931543;28;206832;-65
2022/08/24 04:11:44;;;;;;;24.58;21.98;;;17.90;99.90;;;;;;4949425;28;259093;-66
2022/08/24 04:14:11;;;;;;;26.67;22.98;;;17.80;99.90;;;;;;4922317;28;184883;-67
2022/08/24 04:16:37;;;;;;;27.13;23.73;;;17.80;99.90;;;;;;4935486;28;275559;-66
2022/08/24 04:19:04;;;;;;;26.63;23.83;;;17.80;99.90;;;;;;4923415;28;206946;-66
2022/08/24 04:21:33;;;;;;;27.90;24.95;;;17.80;99.90;;;;;;4952008;28;265893;-65
2022/08/24 04:24:00;;;;;;;28.83;25.85;;;17.80;99.90;;;;;;4910012;28;212649;-66
2022/08/24 04:26:28;;;;;;;33.50;28.60;;;17.90;99.90;;;;;;4953936;28;259491;-66
2022/08/24 04:28:55;;;;;;;38.25;32.72;;;17.90;99.90;;;;;;4935207;28;207690;-64
2022/08/24 04:31:22;;;;;;;32.42;29.02;;;18.00;99.90;;;;;;4958578;28;271271;-66
2022/08/24 04:33:49;;;;;;;34.50;30.42;;;18.00;99.90;;;;;;4939179;28;207718;-66
2022/08/24 04:36:17;;;;;;;34.30;30.60;;;17.90;99.90;;;;;;4956614;28;270619;-66
2022/08/24 04:38:43;;;;;;;29.75;25.83;;;17.90;99.90;;;;;;4942642;28;206347;-66
2022/08/24 04:41:11;;;;;;;33.97;30.00;;;17.90;99.90;;;;;;4956841;28;269991;-65
2022/08/24 04:43:38;;;;;;;31.88;27.63;;;17.90;99.90;;;;;;4936466;28;206041;-64
2022/08/24 04:46:06;;;;;;;30.55;27.17;;;18.00;99.90;;;;;;4958504;28;254374;-66
2022/08/24 04:48:33;;;;;;;29.20;26.02;;;17.90;99.90;;;;;;4935900;28;206521;-66
2022/08/24 04:51:07;;;;;;;29.92;26.17;;;17.90;99.90;;;;;;4944048;28;276969;-67
2022/08/24 04:53:34;;;;;;;30.33;27.23;;;17.90;99.90;;;;;;4946418;28;208162;-65
2022/08/24 04:56:01;;;;;;;28.00;24.73;;;18.00;99.90;;;;;;4956412;28;257456;-65
2022/08/24 04:58:29;;;;;;;31.20;27.40;;;18.00;99.90;;;;;;4936154;28;208763;-67
2022/08/24 05:00:55;;;;;;;29.95;26.00;;;18.00;99.90;;;;;;4971957;28;20504;-67
2022/08/24 05:03:22;;;;;;;31.95;25.08;;;18.00;99.90;;;;;;4900637;28;207387;-67
2022/08/24 05:05:50;;;;;;;30.02;24.55;;;18.00;99.90;;;;;;4976473;28;20059;-67
2022/08/24 05:08:18;;;;;;;26.30;23.48;;;18.00;99.90;;;;;;4904897;28;209904;-67
2022/08/24 05:10:47;;;;;;;28.45;24.85;;;18.10;99.90;;;;;;4949127;28;20050;-66
2022/08/24 05:13:14;;;;;;;28.95;25.70;;;18.10;99.90;;;;;;4907286;28;257152;-66
2022/08/24 05:15:46;;;;;;;31.98;28.58;;;18.10;99.90;;;;;;4943010;28;20051;-65
2022/08/24 05:18:14;;;;;;;30.35;27.15;;;18.10;99.90;;;;;;4911535;28;259179;-65
2022/08/24 05:20:45;;;;;;;30.98;26.02;;;18.20;99.90;;;;;;4974376;28;20046;-65
2022/08/24 05:23:11;;;;;;;;;;;18.20;99.90;;;;;;4922017;28;263348;-68
2022/08/24 05:25:39;;;;;;;31.10;27.67;;;18.20;99.90;;;;;;4973187;28;19929;-66
2022/08/24 05:28:05;;;;;;;32.08;27.42;;;18.20;99.90;;;;;;4917813;28;273048;-66
2022/08/24 05:30:32;;;;;;;30.40;26.40;;;18.30;99.90;;;;;;4963114;28;20055;-66
2022/08/24 05:32:58;;;;;;;30.10;25.65;;;18.30;99.90;;;;;;4915693;28;260823;-67
2022/08/24 05:35:25;;;;;;;31.77;25.98;;;18.40;99.90;;;;;;4980268;28;20083;-67
2022/08/24 05:37:51;;;;;;;31.40;26.55;;;18.40;99.90;;;;;;4938137;28;266261;-66
2022/08/24 05:40:18;;;;;;;31.08;26.05;;;18.50;99.90;;;;;;4926310;28;207485;-65
2022/08/24 05:42:44;;;;;;;32.88;29.35;;;18.50;99.90;;;;;;4967775;28;61073;-66
2022/08/24 05:45:11;;;;;;;28.70;25.67;;;18.60;99.90;;;;;;4936008;28;206193;-66
2022/08/24 05:47:38;;;;;;;32.47;28.52;;;18.70;99.90;;;;;;4961482;28;262853;-66
2022/08/24 05:50:05;;;;;;;34.42;30.65;;;18.70;99.90;;;;;;4915920;28;208780;-66
2022/08/24 05:52:33;;;;;;;35.13;30.20;;;18.70;99.90;;;;;;4960095;28;258048;-67
2022/08/24 05:55:00;;;;;;;35.80;31.55;;;18.80;99.90;;;;;;4935503;28;207038;-66
2022/08/24 05:57:31;;;;;;;38.80;31.25;;;18.80;99.90;;;;;;4960370;28;267993;-66
2022/08/24 05:59:57;;;;;;;36.80;30.20;;;18.90;99.90;;;;;;4932009;28;206804;-67
2022/08/24 06:02:23;;;;;;;38.25;31.98;;;18.90;99.90;;;;;;4944751;28;257789;-67
2022/08/24 06:04:49;;;;;;;38.08;32.38;;;19.00;99.90;;;;;;4926053;28;206466;-66
2022/08/24 06:07:15;;;;;;;38.05;32.80;;;19.00;99.90;;;;;;4959744;28;259199;-67
2022/08/24 06:09:42;;;;;;;37.05;32.55;;;19.00;99.90;;;;;;4932592;28;207070;-65
2022/08/24 06:12:08;;;;;;;38.45;33.45;;;19.10;99.90;;;;;;4953232;28;157743;-66
2022/08/24 06:14:35;;;;;;;38.15;34.03;;;19.20;99.90;;;;;;4945790;28;206043;-66
2022/08/24 06:17:04;;;;;;;37.65;33.65;;;19.20;99.90;;;;;;4954674;28;110865;-67
2022/08/24 06:19:31;;;;;;;35.08;31.25;;;19.40;99.90;;;;;;4931122;28;224892;-65
2022/08/24 06:21:58;;;;;;;35.35;31.63;;;19.50;99.90;;;;;;4956495;28;275189;-67
2022/08/24 06:27:21;;;;;;;33.63;29.92;;;20.00;99.90;;;;;;4957956;28;276221;-67
2022/08/24 06:29:52;;;;;;;30.83;27.50;;;20.40;99.90;;;;;;4940036;28;210316;-67
2022/08/24 06:32:19;;;;;;;32.17;28.75;;;20.90;99.90;;;;;;4959691;28;263660;-66
2022/08/24 06:34:46;;;;;;;30.38;26.83;;;21.20;99.90;;;;;;4920146;28;209199;-67
2022/08/24 06:37:12;;;;;;;30.73;26.40;;;21.60;99.90;;;;;;4958572;28;268563;-66
2022/08/24 06:39:38;;;;;;;28.02;24.60;;;22.00;99.90;;;;;;4929553;28;210880;-66
2022/08/24 06:42:05;;;;;;;28.58;23.15;;;22.40;99.90;;;;;;4957260;28;272295;-66
2022/08/24 06:44:31;;;;;;;25.92;23.05;;;22.80;99.90;;;;;;4924605;28;215786;-67
2022/08/24 06:46:57;;;;;;;25.52;22.13;;;23.00;99.90;;;;;;4955302;28;267797;-67
2022/08/24 06:49:24;;;;;;;25.58;21.08;;;23.30;99.90;;;;;;4943785;28;206583;-67
2022/08/24 06:51:50;;;;;;;23.80;19.23;;;23.60;99.90;;;;;;4955985;28;243107;-67
2022/08/24 06:54:19;;;;;;;22.17;19.15;;;23.80;99.90;;;;;;4918282;28;207140;-67
2022/08/24 06:56:45;;;;;;;22.70;19.00;;;23.90;99.90;;;;;;4956894;28;261572;-66
2022/08/24 06:59:12;;;;;;;23.17;18.73;;;24.20;99.90;;;;;;4928948;28;205034;-67
2022/08/24 07:01:38;;;;;;;19.58;16.58;;;24.50;99.90;;;;;;4939677;28;269130;-67
2022/08/24 07:04:04;;;;;;;21.48;16.20;;;24.80;99.90;;;;;;4925831;28;206930;-67
2022/08/24 07:06:30;;;;;;;19.38;15.18;;;25.00;99.90;;;;;;4950452;28;252096;-67
2022/08/24 07:08:56;;;;;;;18.45;15.55;;;25.30;99.90;;;;;;4935504;28;209334;-66
2022/08/24 07:11:24;;;;;;;18.70;14.88;;;25.40;99.90;;;;;;4949291;28;221368;-67
2022/08/24 07:13:50;;;;;;;18.65;13.93;;;25.50;99.90;;;;;;4933626;28;210722;-66
2022/08/24 07:16:18;;;;;;;16.20;12.95;;;25.60;99.90;;;;;;4954626;28;275435;-67
2022/08/24 07:18:44;;;;;;;15.82;12.13;;;26.00;99.90;;;;;;4940174;28;206020;-67
2022/08/24 07:21:11;;;;;;;15.88;12.05;;;26.30;99.90;;;;;;4954063;28;254978;-67
2022/08/24 07:23:37;;;;;;;19.05;10.52;;;26.50;99.90;;;;;;4925602;28;212307;-66
2022/08/24 07:26:06;;;;;;;16.58;10.25;;;26.70;99.90;;;;;;4957416;28;269437;-67
2022/08/24 07:28:36;;;;;;;16.85;9.38;;;26.90;99.90;;;;;;4934874;28;213942;-67
2022/08/24 07:31:02;;;;;;;15.65;8.00;;;27.00;99.90;;;;;;4946039;28;299243;-66
2022/08/24 07:33:29;;;;;;;12.63;7.65;;;27.30;99.90;;;;;;4935317;28;212549;-66
2022/08/24 07:35:55;;;;;;;13.85;6.55;;;27.60;99.90;;;;;;4970418;28;20055;-67
2022/08/24 07:38:21;;;;;;;12.93;7.25;;;27.80;99.70;;;;;;4893096;28;210412;-67
2022/08/24 07:40:47;;;;;;;12.02;6.60;;;27.90;99.10;;;;;;4945690;28;20058;-68
2022/08/24 07:43:14;;;;;;;11.05;5.88;;;27.90;99.00;;;;;;4921059;28;263168;-66
2022/08/24 07:45:41;;;;;;;13.23;6.07;;;28.20;99.00;;;;;;4952940;28;20065;-68
2022/08/24 07:48:08;;;;;;;17.00;6.55;;;28.40;98.30;;;;;;4900804;28;211964;-67
2022/08/24 07:50:36;;;;;;;11.60;5.55;;;28.40;97.80;;;;;;4980209;28;20070;-68
2022/08/24 07:53:02;;;;;;;12.27;6.27;;;28.50;98.00;;;;;;4921364;28;262000;-68
2022/08/24 07:55:28;;;;;;;10.60;5.40;;;28.70;97.60;;;;;;4973599;28;20054;-67
2022/08/24 07:57:54;;;;;;;13.30;5.68;;;28.80;97.40;;;;;;4916066;28;275296;-67
2022/08/24 08:00:21;;;;;;;11.45;4.85;;;29.00;97.30;;;;;;4979651;28;20053;-67
2022/08/24 08:02:48;;;;;;;10.43;4.95;;;29.10;96.50;;;;;;4938033;28;254542;-67
2022/08/24 08:05:18;;;;;;;10.57;5.00;;;29.20;96.30;;;;;;4932007;28;167227;-67
2022/08/24 08:07:44;;;;;;;12.07;4.70;;;29.30;95.90;;;;;;4967530;28;252918;-68
2022/08/24 08:10:13;;;;;;;9.73;4.95;;;29.40;95.80;;;;;;4932641;28;158061;-68
2022/08/24 08:12:39;;;;;;;13.00;5.00;;;29.30;95.70;;;;;;4965848;28;256500;-67
2022/08/24 08:15:08;;;;;;;11.02;4.57;;;29.50;95.60;;;;;;4932185;28;208380;-67
2022/08/24 08:17:38;;;;;;;11.55;4.50;;;29.80;95.20;;;;;;4963958;28;256704;-68
2022/08/24 08:20:05;;;;;;;;;;;29.90;94.60;;;;;;4930581;28;210732;-68
2022/08/24 08:25:17;;;;;;;13.82;4.68;;;30.20;94.80;;;;;;4929055;28;186647;-68
2022/08/24 08:27:43;;;;;;;9.68;4.22;;;30.50;94.30;;;;;;4956087;28;125749;-67
2022/08/24 08:30:09;;;;;;;13.13;3.70;;;30.90;93.90;;;;;;4939290;28;206221;-68
2022/08/24 08:32:36;;;;;;;11.32;3.70;;;31.30;93.60;;;;;;4960322;28;58190;-67
2022/08/24 08:35:03;;;;;;;12.50;4.00;;;31.70;93.40;;;;;;4937545;28;207054;-68
2022/08/24 08:37:29;;;;;;;12.85;4.10;;;31.70;91.90;;;;;;4961064;28;269962;-69
2022/08/24 08:39:56;;;;;;;12.82;3.83;;;31.20;91.70;;;;;;4904036;28;207298;-68
2022/08/24 08:42:41;;;;;;;11.00;3.55;;;31.30;91.70;;;;;;4960122;28;257634;-67
2022/08/24 08:45:14;;;;;;;8.77;3.60;;;31.60;91.90;;;;;;4933449;28;211328;-68
2022/08/24 08:47:58;;;;;;;12.15;3.78;;;31.90;91.40;;;;;;4963349;28;265958;-69
2022/08/24 08:50:28;;;;;;;10.32;3.67;;;32.40;88.80;;;;;;4925675;28;206852;-69
2022/08/24 08:53:20;;;;;;;11.65;4.28;;;32.10;90.50;;;;;;4918303;28;239712;-68
2022/08/24 08:55:52;;;;;;;12.48;3.70;;;32.40;90.30;;;;;;4962795;28;20059;-67
2022/08/24 08:58:51;;;;;;;10.40;3.78;;;32.70;89.40;;;;;;4925451;28;213158;-67
2022/08/24 09:01:41;;;;;;;11.02;3.88;;;33.10;88.90;;;;;;4938376;28;263507;-69
2022/08/24 09:04:25;;;;;;;;;;;33.30;85.60;;;;;;4934377;28;206955;-67
2022/08/24 09:07:18;;;;;;;9.48;3.45;;;33.20;84.70;;;;;;4959877;28;267844;-68
2022/08/24 09:10:26;;;;;;;10.18;3.50;;;33.40;85.30;;;;;;4934386;28;214683;-67
2022/08/24 09:13:29;;;;;;;11.80;3.78;;;33.60;82.90;;;;;;4927517;28;260246;-67
2022/08/24 09:16:20;;;;;;;10.30;3.53;;;33.70;83.20;;;;;;4955829;28;256635;-67
2022/08/24 09:18:48;;;;;;;11.55;3.10;;;33.90;83.50;;;;;;4886057;28;206425;-68
2022/08/24 09:21:33;;;;;;;12.10;3.28;;;34.20;82.60;;;;;;4919636;28;124689;-68
2022/08/24 09:24:21;;;;;;;8.50;2.53;;;34.60;81.60;;;;;;4893346;28;205186;-69
2022/08/24 09:26:53;;;;;;;10.52;3.00;;;34.70;77.80;;;;;;4927487;28;120826;-68
2022/08/24 09:29:48;;;;;;;11.55;2.90;;;34.30;76.60;;;;;;4890994;28;210102;-68
2022/08/24 09:32:35;;;;;;;8.82;3.20;;;34.00;74.20;;;;;;4917132;28;20062;-68
2022/08/24 09:35:07;;;;;;;10.20;3.03;;;33.60;75.00;;;;;;4877676;28;209583;-67
2022/08/24 09:38:13;;;;;;;10.02;3.03;;;33.60;77.00;;;;;;4922823;28;102437;-68
2022/08/24 09:40:57;;;;;;;9.40;2.88;;;33.80;76.70;;;;;;4827985;29;139162;-68
2022/08/24 09:43:42;;;;;;;8.63;2.58;;;34.30;75.40;;;;;;4816430;29;205691;-70
2022/08/24 09:46:26;;;;;;;8.60;2.38;;;34.80;75.60;;;;;;4867478;29;250919;-67
2022/08/24 09:49:01;;;;;;;8.13;2.20;;;34.80;73.00;;;;;;4844035;29;209211;-67
2022/08/24 09:52:03;;;;;;;7.40;2.20;;;34.60;73.60;;;;;;4868070;29;169131;-67
2022/08/24 09:54:41;;;;;;;9.30;2.55;;;34.70;71.90;;;;;;4839857;29;207746;-68
2022/08/24 09:57:27;;;;;;;8.15;2.47;;;34.50;70.90;;;;;;4888027;29;20048;-68
2022/08/24 10:00:10;;;;;;;9.02;2.97;;;34.40;71.70;;;;;;4827133;29;207274;-68
2022/08/24 10:03:03;;;;;;;9.05;2.70;;;34.50;70.30;;;;;;4872699;29;216231;-69
2022/08/24 10:05:38;;;;;;;10.15;2.22;;;34.60;70.30;;;;;;4833815;29;210087;-69
2022/08/24 10:08:10;;;;;;;8.90;2.20;;;34.50;68.40;;;;;;4851228;29;206365;-68
2022/08/24 10:10:54;;;;;;;8.88;1.83;;;34.30;69.80;;;;;;4887388;29;20052;-68
2022/08/24 10:13:58;;;;;;;9.40;2.65;;;34.80;69.80;;;;;;4836608;29;252350;-69
2022/08/24 10:16:54;;;;;;;9.63;2.60;;;35.30;69.10;;;;;;4884357;29;172202;-71
2022/08/24 10:19:44;;;;;;;9.23;2.03;;;35.40;66.70;;;;;;4831317;29;206767;-72
2022/08/24 10:22:40;;;;;;;9.88;2.45;;;35.30;67.80;;;;;;4866280;29;263699;-68
2022/08/24 10:25:31;;;;;;;9.18;2.28;;;35.20;67.30;;;;;;4826723;29;209160;-69
2022/08/24 10:28:06;;;;;;;8.90;2.28;;;35.10;66.80;;;;;;4828410;29;206339;-69
2022/08/24 10:30:51;;;;;;;7.60;2.28;;;34.90;66.00;;;;;;4877128;28;20063;-69
2022/08/24 10:33:20;;;;;;;8.85;1.85;;;35.30;68.50;;;;;;4919269;28;261289;-69
2022/08/24 10:36:13;;;;;;;6.28;1.30;;;35.60;66.60;;;;;;4969797;28;20637;-69
2022/08/24 10:41:59;;;;;;;7.50;1.65;;;35.50;65.80;;;;;;4948181;28;279330;-70
2022/08/24 10:44:43;;;;;;;8.20;1.83;;;35.60;65.90;;;;;;4930267;28;209056;-70
2022/08/24 10:47:25;;;;;;;9.07;1.90;;;35.90;66.70;;;;;;4950835;28;168296;-70
2022/08/24 10:50:00;;;;;;;7.13;2.00;;;36.10;66.30;;;;;;4934590;28;207469;-69
2022/08/24 10:53:08;;;;;;;7.70;1.60;;;36.50;64.80;;;;;;4958716;28;268311;-69
2022/08/24 10:55:34;;;;;;;5.55;1.58;;;36.40;63.90;;;;;;4889990;29;205391;-68
2022/08/24 10:58:03;;;;;;;7.17;1.50;;;36.50;64.10;;;;;;4886844;28;211750;-69
2022/08/24 11:00:30;;;;;;;6.53;1.70;;;36.60;61.90;;;;;;4935992;28;20055;-69
2022/08/24 11:03:21;;;;;;;6.80;1.50;;;36.40;63.40;;;;;;4881819;28;190098;-68
2022/08/24 11:05:53;;;;;;;6.78;1.80;;;36.30;62.20;;;;;;4944946;28;20047;-70
2022/08/24 11:08:25;;;;;;;6.03;1.58;;;36.20;63.60;;;;;;4863157;28;209939;-68
2022/08/24 11:11:12;;;;;;;7.80;2.08;;;36.30;62.30;;;;;;4938425;28;20054;-69
2022/08/24 11:14:16;;;;;;;7.50;1.80;;;36.50;61.40;;;;;;4844090;28;206685;-68
2022/08/24 11:16:45;;;;;;;7.63;1.48;;;36.50;61.60;;;;;;4895807;29;20060;-69
2022/08/24 11:19:28;;;;;;;9.90;1.90;;;36.70;62.70;;;;;;4857815;28;206222;-69
2022/08/24 11:21:56;;;;;;;7.18;1.55;;;37.10;61.60;;;;;;4900356;29;239757;-69
2022/08/24 11:24:28;;;;;;;6.47;1.50;;;37.10;61.50;;;;;;4871529;29;208920;-70
2022/08/24 11:27:01;;;;;;;7.75;1.60;;;36.70;59.50;;;;;;4894259;29;132933;-69
2022/08/24 11:29:47;;;;;;;4.28;1.10;;;36.40;61.40;;;;;;4873323;28;444994;-69
2022/08/24 11:32:26;;;;;;;9.77;1.90;;;36.50;60.30;;;;;;4943885;28;240483;-70
2022/08/24 11:34:53;;;;;;;6.95;1.65;;;36.70;60.70;;;;;;4926344;28;214454;-70
2022/08/24 11:37:29;;;;;;;7.05;1.40;;;37.10;61.50;;;;;;4949191;28;265115;-68
2022/08/24 11:39:56;;;;;;;5.13;1.25;;;37.70;59.70;;;;;;4911031;28;209102;-71
2022/08/24 11:42:37;;;;;;;5.55;1.40;;;37.70;58.70;;;;;;4963733;28;52090;-68
2022/08/24 11:45:23;;;;;;;5.55;1.40;;;37.50;58.00;;;;;;4890895;28;206819;-70
2022/08/24 11:48:04;;;;;;;6.45;1.55;;;37.60;59.00;;;;;;4944816;28;258208;-69
2022/08/24 11:50:39;;;;;;;7.80;1.58;;;37.50;58.10;;;;;;4910124;28;448955;-71
2022/08/24 11:53:12;;;;;;;5.35;1.13;;;37.60;58.00;;;;;;4891654;28;189128;-71
2022/08/24 11:56:06;;;;;;;5.43;1.20;;;37.70;59.20;;;;;;4927018;28;20059;-70
2022/08/24 11:58:54;;;;;;;3.35;0.90;;;38.00;56.00;;;;;;4897357;28;199402;-71
2022/08/24 12:01:50;;;;;;;5.10;0.90;;;37.90;54.90;;;;;;4927448;28;243778;-69
2022/08/24 12:04:43;;;;;;;2.40;0.60;;;38.10;55.10;;;;;;4879325;28;213082;-71
2022/08/24 12:07:30;;;;;;;3.15;0.77;;;38.30;55.90;;;;;;4930457;28;257364;-70
2022/08/24 12:10:24;;;;;;;5.10;1.00;;;38.30;53.90;;;;;;4925470;28;223774;-69
2022/08/24 12:12:53;;;;;;;3.75;0.90;;;38.70;53.60;;;;;;4936762;28;266352;-72
2022/08/24 12:15:44;;;;;;;4.05;0.77;;;38.80;55.70;;;;;;4945726;28;218294;-72
2022/08/24 12:18:29;;;;;;;3.60;0.90;;;39.30;54.50;;;;;;4890412;28;216340;-71
2022/08/24 12:20:56;;;;;;;4.68;0.80;;;39.70;52.10;;;;;;4936896;28;265497;-70
2022/08/24 12:23:27;;;;;;;4.63;1.15;;;39.20;53.30;;;;;;4932455;28;221253;-69
2022/08/24 12:26:08;;;;;;;6.10;1.08;;;38.50;53.20;;;;;;4976609;28;20059;-68
2022/08/24 12:29:00;;;;;;;5.07;1.00;;;37.60;53.50;;;;;;4884931;28;255243;-70
2022/08/24 12:31:51;;;;;;;5.22;1.02;;;36.90;54.40;;;;;;4952706;28;260909;-70
2022/08/24 12:34:29;;;;;;;4.68;1.10;;;36.30;55.00;;;;;;4910421;28;213227;-69
2022/08/24 12:37:26;;;;;;;6.25;1.00;;;36.00;55.60;;;;;;4958554;28;274500;-69
2022/08/24 12:40:32;;;;;;;4.88;0.90;;;35.70;56.50;;;;;;4930077;28;247436;-68
2022/08/24 12:43:09;;;;;;;3.88;1.10;;;35.50;57.70;;;;;;4843351;28;328226;-70
2022/08/24 12:45:36;;;;;;;5.38;1.10;;;35.10;56.30;;;;;;4927613;28;20055;-70
2022/08/24 12:48:20;;;;;;;3.78;1.00;;;34.50;57.20;;;;;;4859633;28;211475;-71
2022/08/24 12:51:07;;;;;;;5.88;1.05;;;34.20;57.30;;;;;;4910729;29;20432;-69
2022/08/24 12:53:50;;;;;;;5.72;1.13;;;33.80;58.70;;;;;;4827020;29;206051;-69
2022/08/24 12:56:24;;;;;;;11.70;1.33;;;33.60;58.80;;;;;;4897153;28;205687;-70
2022/08/24 12:59:02;;;;;;;6.90;1.30;;;33.40;59.00;;;;;;4878745;28;209725;-69
2022/08/24 13:01:34;;;;;;;5.55;1.33;;;33.10;59.80;;;;;;4891984;29;236913;-69